Time;durP1;ratioP1;P1;durP2;ratioP2;P2;SDS_P1;SDS_P2;PMS_P1;PMS_P2;Temp;Humidity;BMP_temperature;BMP_pressure;BME280_temperature;BME280_humidity;BME280_pressure;Samples;Min_cycle;Max_cycle;Signal;HPM_P1;HPM_P2
2023/08/09 00:00:42;;;;;;;7.75;3.58;;;15.80;99.90;;;;;;4965227;28;89137;-77
2023/08/09 00:03:08;;;;;;;14.43;3.60;;;15.80;99.90;;;;;;4966949;28;87726;-77
2023/08/09 00:05:34;;;;;;;7.68;3.55;;;15.80;99.90;;;;;;4967650;28;87585;-77
2023/08/09 00:08:00;;;;;;;5.90;3.53;;;15.80;99.90;;;;;;4965884;28;90349;-77
2023/08/09 00:10:26;;;;;;;5.82;2.78;;;15.80;99.90;;;;;;4965510;28;88655;-77
2023/08/09 00:12:51;;;;;;;7.38;3.83;;;15.80;99.90;;;;;;4963996;28;94982;-77
2023/08/09 00:15:18;;;;;;;5.63;3.40;;;15.80;99.90;;;;;;4964537;28;87371;-77
2023/08/09 00:17:44;;;;;;;7.25;4.18;;;15.80;99.90;;;;;;4948962;28;91290;-77
2023/08/09 00:20:11;;;;;;;5.63;3.20;;;15.90;99.90;;;;;;4967084;28;88453;-77
2023/08/09 00:22:38;;;;;;;9.63;3.58;;;15.90;99.90;;;;;;4947920;28;88075;-77
2023/08/09 00:25:05;;;;;;;9.65;3.78;;;15.90;99.90;;;;;;4967600;28;88168;-77
2023/08/09 00:27:31;;;;;;;12.38;4.05;;;15.90;99.90;;;;;;4966696;28;88682;-76
2023/08/09 00:29:56;;;;;;;8.95;3.88;;;15.90;99.90;;;;;;4965678;28;88273;-77
2023/08/09 00:32:22;;;;;;;7.45;3.60;;;15.90;99.90;;;;;;4967011;28;87670;-77
2023/08/09 00:34:48;;;;;;;7.72;3.30;;;15.90;99.90;;;;;;4966072;28;87843;-77
2023/08/09 00:37:14;;;;;;;11.13;3.95;;;15.90;99.90;;;;;;4965629;28;88710;-77
2023/08/09 00:39:39;;;;;;;9.68;3.53;;;16.00;99.90;;;;;;4966896;28;88332;-77
2023/08/09 00:42:05;;;;;;;6.53;3.50;;;15.90;99.90;;;;;;4965055;28;87879;-77
2023/08/09 00:44:31;;;;;;;8.02;4.10;;;15.90;99.90;;;;;;4965458;28;87876;-77
2023/08/09 00:46:57;;;;;;;10.98;3.60;;;16.00;99.90;;;;;;4946663;28;93308;-77
2023/08/09 00:49:23;;;;;;;9.15;4.05;;;16.00;99.90;;;;;;4966594;28;88216;-77
2023/08/09 00:51:49;;;;;;;7.85;4.00;;;16.00;99.90;;;;;;4965099;28;88084;-77
2023/08/09 00:54:16;;;;;;;9.68;3.50;;;16.00;99.90;;;;;;4947788;28;90181;-77
2023/08/09 00:56:43;;;;;;;5.30;3.20;;;16.00;99.90;;;;;;4964944;28;88435;-77
2023/08/09 00:59:09;;;;;;;11.52;3.45;;;16.00;99.90;;;;;;4965815;28;87560;-77
2023/08/09 01:01:35;;;;;;;9.27;3.65;;;16.00;99.90;;;;;;4964938;28;87487;-77
2023/08/09 01:04:01;;;;;;;8.52;3.58;;;16.00;99.90;;;;;;4965476;28;87908;-77
2023/08/09 01:06:48;;;;;;;6.75;3.35;;;16.00;99.90;;;;;;4948659;28;90058;-77
2023/08/09 01:09:41;;;;;;;5.88;3.67;;;16.00;99.90;;;;;;4964191;28;87977;-77
2023/08/09 01:12:11;;;;;;;8.20;3.20;;;16.00;99.90;;;;;;4965120;28;88644;-77
2023/08/09 01:14:46;;;;;;;9.55;4.07;;;16.00;99.90;;;;;;4965284;28;87693;-77
2023/08/09 01:17:13;;;;;;;9.90;3.38;;;16.00;99.90;;;;;;4955852;28;90454;-77
2023/08/09 01:19:51;;;;;;;5.43;3.38;;;16.00;99.90;;;;;;4965481;28;89323;-77
2023/08/09 01:22:26;;;;;;;6.68;3.65;;;16.00;99.90;;;;;;4964103;28;87428;-77
2023/08/09 01:24:52;;;;;;;7.28;3.30;;;16.00;99.90;;;;;;4947691;28;90739;-77
2023/08/09 01:27:19;;;;;;;6.03;3.83;;;16.00;99.90;;;;;;4948540;28;88913;-77
2023/08/09 01:29:45;;;;;;;7.60;3.47;;;16.00;99.90;;;;;;4965311;28;86517;-77
2023/08/09 01:32:11;;;;;;;7.07;3.78;;;16.00;99.90;;;;;;4965342;28;87683;-77
2023/08/09 01:34:37;;;;;;;13.90;5.15;;;16.00;99.90;;;;;;4965256;28;87937;-77
2023/08/09 01:37:15;;;;;;;9.15;4.53;;;16.00;99.90;;;;;;4965706;28;89287;-76
2023/08/09 01:39:42;;;;;;;11.27;4.07;;;16.00;99.90;;;;;;4947659;28;91702;-76
2023/08/09 01:42:10;;;;;;;8.48;3.95;;;16.00;99.90;;;;;;4964010;28;87275;-76
2023/08/09 01:44:35;;;;;;;6.30;3.42;;;16.00;99.90;;;;;;4963924;28;87986;-76
2023/08/09 01:47:03;;;;;;;8.80;4.18;;;16.00;99.90;;;;;;4965204;28;87934;-77
2023/08/09 01:49:29;;;;;;;9.30;4.10;;;16.00;99.90;;;;;;4964668;28;87688;-77
2023/08/09 01:51:55;;;;;;;8.95;3.80;;;16.00;99.90;;;;;;4964750;28;87704;-77
2023/08/09 01:54:20;;;;;;;8.32;3.88;;;16.00;99.90;;;;;;4967045;28;87298;-76
2023/08/09 01:56:46;;;;;;;9.90;4.22;;;16.00;99.90;;;;;;4965284;28;87889;-77
2023/08/09 01:59:12;;;;;;;9.00;4.05;;;16.00;99.90;;;;;;4965348;28;88312;-77
2023/08/09 02:01:37;;;;;;;6.72;3.85;;;16.00;99.90;;;;;;4968891;28;88277;-77
2023/08/09 02:04:04;;;;;;;7.90;3.90;;;16.00;99.90;;;;;;4968331;28;87649;-77
2023/08/09 02:06:33;;;;;;;6.90;3.85;;;16.00;99.90;;;;;;4966974;28;89903;-77
2023/08/09 02:09:00;;;;;;;7.20;4.45;;;16.00;99.90;;;;;;4970014;28;87776;-77
2023/08/09 02:11:26;;;;;;;9.55;5.00;;;16.00;99.90;;;;;;4969031;28;87555;-77
2023/08/09 02:13:52;;;;;;;10.18;4.55;;;16.00;99.90;;;;;;4950579;28;88368;-77
2023/08/09 02:16:18;;;;;;;9.32;4.50;;;16.00;99.90;;;;;;4968248;28;88022;-77
2023/08/09 02:18:44;;;;;;;9.60;5.28;;;16.00;99.90;;;;;;4950286;28;90839;-76
2023/08/09 02:21:10;;;;;;;6.50;4.68;;;16.00;99.90;;;;;;4968558;28;87569;-76
2023/08/09 02:23:37;;;;;;;8.82;5.57;;;16.00;99.90;;;;;;4967622;28;87621;-76
2023/08/09 02:26:03;;;;;;;9.52;5.47;;;16.00;99.90;;;;;;4966866;28;89325;-77
2023/08/09 02:28:29;;;;;;;8.18;4.38;;;16.00;99.90;;;;;;4967566;28;88772;-76
2023/08/09 02:30:56;;;;;;;7.53;4.65;;;16.00;99.90;;;;;;4969346;28;87972;-76
2023/08/09 02:33:22;;;;;;;9.75;4.63;;;16.00;99.90;;;;;;4957826;28;89403;-76
2023/08/09 02:35:53;;;;;;;13.55;5.00;;;16.00;99.90;;;;;;4968806;28;88013;-76
2023/08/09 02:38:20;;;;;;;7.80;4.25;;;16.00;99.90;;;;;;4967074;28;88497;-76
2023/08/09 02:40:46;;;;;;;5.05;3.85;;;16.00;99.90;;;;;;4967917;28;87775;-76
2023/08/09 02:43:12;;;;;;;7.28;4.45;;;16.00;99.90;;;;;;4968436;28;87086;-76
2023/08/09 02:45:38;;;;;;;7.13;4.30;;;16.00;99.90;;;;;;4966394;28;88530;-76
2023/08/09 02:48:04;;;;;;;6.43;4.60;;;16.00;99.90;;;;;;4967814;28;87518;-76
2023/08/09 02:50:30;;;;;;;5.80;4.13;;;16.00;99.90;;;;;;4969165;28;88664;-76
2023/08/09 02:52:55;;;;;;;5.38;4.88;;;16.00;99.90;;;;;;4967703;28;87874;-76
2023/08/09 02:55:21;;;;;;;7.30;4.43;;;16.10;99.90;;;;;;4965910;28;88661;-76
2023/08/09 02:57:47;;;;;;;7.00;4.43;;;16.00;99.90;;;;;;4968371;28;88181;-76
2023/08/09 03:00:16;;;;;;;8.77;4.78;;;16.00;99.90;;;;;;4969714;28;87862;-76
2023/08/09 03:02:41;;;;;;;7.25;4.65;;;16.10;99.90;;;;;;4968901;28;87721;-76
2023/08/09 03:05:08;;;;;;;7.47;4.30;;;16.10;99.90;;;;;;4967149;28;88376;-76
2023/08/09 03:07:35;;;;;;;5.18;4.28;;;16.10;99.90;;;;;;4967351;28;87841;-76
2023/08/09 03:10:03;;;;;;;7.53;4.22;;;16.10;99.90;;;;;;4966909;28;87697;-76
2023/08/09 03:12:29;;;;;;;8.98;4.45;;;16.10;99.90;;;;;;4967013;28;88017;-76
2023/08/09 03:14:55;;;;;;;4.90;3.90;;;16.20;99.90;;;;;;4968533;28;89205;-76
2023/08/09 03:17:21;;;;;;;6.20;4.38;;;16.20;99.90;;;;;;4964995;28;88364;-76
2023/08/09 03:19:49;;;;;;;6.93;4.57;;;16.20;99.90;;;;;;4966792;28;87917;-76
2023/08/09 03:22:14;;;;;;;9.13;4.93;;;16.20;99.90;;;;;;4965764;28;89880;-76
2023/08/09 03:24:40;;;;;;;8.48;5.43;;;16.20;99.90;;;;;;4966594;28;88618;-75
2023/08/09 03:27:06;;;;;;;7.57;4.50;;;16.20;99.90;;;;;;4957083;28;87798;-76
2023/08/09 03:29:32;;;;;;;3.83;2.58;;;16.20;99.90;;;;;;4951686;28;87954;-75
2023/08/09 03:31:58;;;;;;;3.85;2.83;;;16.20;99.90;;;;;;4949685;28;90571;-76
2023/08/09 03:34:23;;;;;;;2.53;2.20;;;16.20;99.90;;;;;;4967304;28;88212;-76
2023/08/09 03:36:49;;;;;;;3.17;1.55;;;16.20;99.90;;;;;;4967788;28;88720;-75
2023/08/09 03:39:15;;;;;;;2.47;1.27;;;16.20;99.90;;;;;;4967080;28;88154;-75
2023/08/09 03:41:41;;;;;;;1.05;0.95;;;16.20;99.90;;;;;;4969029;28;87351;-75
2023/08/09 03:44:07;;;;;;;1.65;0.90;;;16.20;99.90;;;;;;4968486;28;88632;-76
2023/08/09 03:46:34;;;;;;;1.15;1.00;;;16.20;99.90;;;;;;4957085;28;92195;-76
2023/08/09 03:49:00;;;;;;;2.15;0.85;;;16.20;99.90;;;;;;4968445;28;87318;-75
2023/08/09 03:51:26;;;;;;;1.23;0.90;;;16.20;99.90;;;;;;4965263;28;91163;-76
2023/08/09 03:53:51;;;;;;;2.35;0.98;;;16.20;99.90;;;;;;4965141;28;88270;-75
2023/08/09 03:56:17;;;;;;;2.10;1.10;;;16.20;99.90;;;;;;4957868;28;91773;-76
2023/08/09 03:58:43;;;;;;;1.20;0.90;;;16.20;99.90;;;;;;4950177;28;88064;-76
2023/08/09 04:01:09;;;;;;;1.30;1.20;;;16.20;99.90;;;;;;4968465;28;88028;-76
2023/08/09 04:03:34;;;;;;;2.70;1.60;;;16.20;99.90;;;;;;4966730;28;89581;-76
2023/08/09 04:06:02;;;;;;;2.95;1.60;;;16.30;99.90;;;;;;4969765;28;88496;-76
2023/08/09 04:08:30;;;;;;;3.25;1.52;;;16.20;99.90;;;;;;4966652;28;87317;-76
2023/08/09 04:10:56;;;;;;;3.13;1.77;;;16.30;99.90;;;;;;4967455;28;88058;-76
2023/08/09 04:13:22;;;;;;;3.15;1.70;;;16.30;99.90;;;;;;4951277;28;91263;-76
2023/08/09 04:15:48;;;;;;;2.58;1.98;;;16.30;99.90;;;;;;4957014;28;89771;-75
2023/08/09 04:18:16;;;;;;;3.53;1.88;;;16.20;99.90;;;;;;4968813;28;87807;-76
2023/08/09 04:20:43;;;;;;;3.10;1.73;;;16.30;99.90;;;;;;4968377;28;89706;-75
2023/08/09 04:23:09;;;;;;;2.35;1.98;;;16.30;99.90;;;;;;4965645;28;87779;-76
2023/08/09 04:25:36;;;;;;;2.28;2.00;;;16.30;99.90;;;;;;4958988;28;91829;-76
2023/08/09 04:28:02;;;;;;;4.03;2.58;;;16.30;99.90;;;;;;4968508;28;88568;-76
2023/08/09 04:30:28;;;;;;;3.65;2.17;;;16.30;99.90;;;;;;4958414;28;90606;-75
2023/08/09 04:32:54;;;;;;;2.95;1.58;;;16.30;99.90;;;;;;4970434;28;87835;-76
2023/08/09 04:35:20;;;;;;;1.70;1.60;;;16.30;99.90;;;;;;4956857;28;91206;-76
2023/08/09 04:37:45;;;;;;;1.77;1.40;;;16.40;99.90;;;;;;4950119;28;87537;-76
2023/08/09 04:40:12;;;;;;;1.65;1.55;;;16.40;99.90;;;;;;4966304;28;87389;-76
2023/08/09 04:42:40;;;;;;;2.80;1.70;;;16.40;99.90;;;;;;4969832;28;88057;-76
2023/08/09 04:45:08;;;;;;;2.75;1.38;;;16.40;99.90;;;;;;4968815;28;88117;-76
2023/08/09 04:47:34;;;;;;;9.20;1.60;;;16.50;99.90;;;;;;4966118;28;87759;-76
2023/08/09 04:50:00;;;;;;;2.20;1.38;;;16.50;99.90;;;;;;4957602;28;89456;-76
2023/08/09 04:52:26;;;;;;;1.70;1.30;;;16.60;99.90;;;;;;4965220;28;90153;-76
2023/08/09 04:54:51;;;;;;;3.92;1.30;;;16.60;99.90;;;;;;4950361;28;92317;-77
2023/08/09 04:57:17;;;;;;;1.58;0.93;;;16.60;99.90;;;;;;4950196;28;87758;-76
2023/08/09 04:59:43;;;;;;;1.83;1.27;;;16.70;99.90;;;;;;4965493;28;87955;-76
2023/08/09 05:02:09;;;;;;;1.25;1.00;;;16.70;99.90;;;;;;4965142;28;91107;-76
2023/08/09 05:04:35;;;;;;;1.77;1.02;;;16.70;99.90;;;;;;4965049;28;87905;-76
2023/08/09 05:07:02;;;;;;;1.73;0.93;;;16.70;99.90;;;;;;4966909;28;87765;-76
2023/08/09 05:09:28;;;;;;;1.15;0.73;;;16.70;99.90;;;;;;4948981;28;86679;-76
2023/08/09 05:11:53;;;;;;;1.48;0.77;;;16.70;99.90;;;;;;4965644;28;88651;-76
2023/08/09 05:14:19;;;;;;;0.88;0.70;;;16.70;99.90;;;;;;4961949;28;90365;-79
2023/08/09 05:16:45;;;;;;;1.13;0.70;;;16.70;99.90;;;;;;4962504;28;88891;-79
2023/08/09 05:19:11;;;;;;;1.23;0.75;;;16.70;99.90;;;;;;4956752;28;90312;-79
2023/08/09 05:21:37;;;;;;;2.83;0.90;;;16.70;99.90;;;;;;4966248;28;91822;-80
2023/08/09 05:24:06;;;;;;;5.15;0.95;;;16.70;99.90;;;;;;4952415;28;91462;-80
2023/08/09 05:26:31;;;;;;;0.80;0.70;;;16.70;99.90;;;;;;4952832;28;87094;-79
2023/08/09 05:28:57;;;;;;;3.97;1.20;;;16.70;99.90;;;;;;4968020;28;89633;-80
2023/08/09 05:31:23;;;;;;;1.08;0.90;;;16.70;99.90;;;;;;4967104;28;92638;-80
2023/08/09 05:33:48;;;;;;;4.07;1.35;;;16.70;99.90;;;;;;4967471;28;91836;-80
2023/08/09 05:36:18;;;;;;;2.22;1.00;;;16.70;99.90;;;;;;4970149;28;87648;-80
2023/08/09 05:38:43;;;;;;;1.23;1.00;;;16.70;99.90;;;;;;4954361;28;90983;-79
2023/08/09 05:41:09;;;;;;;1.20;1.08;;;16.70;99.90;;;;;;4952746;28;91949;-78
2023/08/09 05:43:35;;;;;;;1.00;0.85;;;16.70;99.90;;;;;;4960089;28;92431;-80
2023/08/09 05:46:01;;;;;;;1.20;1.00;;;16.60;99.90;;;;;;4978341;28;87580;-80
2023/08/09 05:48:27;;;;;;;1.00;0.90;;;16.60;99.90;;;;;;4959381;28;90639;-80
2023/08/09 05:50:55;;;;;;;3.83;0.93;;;16.60;99.90;;;;;;4982646;28;92342;-80
2023/08/09 05:53:21;;;;;;;5.20;0.85;;;16.50;99.90;;;;;;4958174;28;91767;-80
2023/08/09 05:56:00;;;;;;;1.90;0.80;;;16.50;99.90;;;;;;4961618;28;87550;-81
2023/08/09 05:58:28;;;;;;;1.23;0.80;;;16.50;99.90;;;;;;4956077;28;87494;-80
2023/08/09 06:01:38;;;;;;;1.40;1.20;;;16.50;99.90;;;;;;4963874;28;90480;-81
2023/08/09 06:07:47;;;;;;;1.53;0.80;;;16.50;99.90;;;;;;4866870;29;89372;-80
2023/08/09 06:10:47;;;;;;;;;;;;;;;;;;;;;
2023/08/09 06:13:42;;;;;;;4.25;1.30;;;16.60;99.90;;;;;;4923985;28;116956;-81
2023/08/09 06:16:08;;;;;;;1.20;0.98;;;16.60;99.90;;;;;;4910105;28;89883;-81
2023/08/09 06:42:53;;;;;;;4.03;1.50;;;17.10;99.90;;;;;;5202054;22;91397;-81
2023/08/09 06:45:19;;;;;;;3.35;1.75;;;17.20;99.90;;;;;;4924162;28;91648;-81
2023/08/09 06:48:34;;;;;;;;;;;;;;;;;;;;;
2023/08/09 06:51:07;;;;;;;2.25;1.58;;;17.50;99.90;;;;;;4926523;28;115688;-81
2023/08/09 06:53:54;;;;;;;3.23;2.20;;;17.60;99.90;;;;;;4928030;28;89586;-81
2023/08/09 07:17:23;;;;;;;1.20;1.10;;;18.40;98.10;;;;;;4960719;28;89154;-80
2023/08/09 07:19:48;;;;;;;1.98;1.60;;;18.40;97.40;;;;;;4938638;28;90809;-80
2023/08/09 07:22:14;;;;;;;2.53;1.90;;;18.50;97.00;;;;;;4934084;28;87539;-78
2023/08/09 07:24:40;;;;;;;4.65;1.65;;;18.50;97.10;;;;;;4950178;28;87595;-80
2023/08/09 07:27:10;;;;;;;2.55;1.80;;;18.50;97.30;;;;;;4941697;28;93265;-80
2023/08/09 07:29:36;;;;;;;4.60;1.50;;;18.60;96.30;;;;;;4949020;28;92584;-81
2023/08/09 07:32:02;;;;;;;1.90;1.50;;;18.60;96.50;;;;;;4939796;28;87662;-81
2023/08/09 07:34:30;;;;;;;4.47;1.73;;;18.60;96.40;;;;;;4937886;28;90001;-80
2023/08/09 07:37:10;;;;;;;1.58;1.33;;;18.70;96.70;;;;;;4932415;28;89888;-81
2023/08/09 07:39:43;;;;;;;2.65;1.48;;;18.70;95.90;;;;;;4939618;28;90889;-81
2023/08/09 07:42:10;;;;;;;3.53;1.42;;;18.80;95.80;;;;;;4954624;28;87792;-79
2023/08/09 07:44:35;;;;;;;2.58;1.65;;;18.80;95.80;;;;;;4696962;22;88432;-80
2023/08/09 07:49:40;;;;;;;1.92;1.15;;;18.90;96.00;;;;;;5456431;22;89698;-81
2023/08/09 07:52:31;;;;;;;4.70;1.27;;;19.00;95.70;;;;;;4924136;28;87788;-82
2023/08/09 07:55:32;;;;;;;7.40;1.30;;;19.00;95.60;;;;;;4912925;28;88856;-81
2023/08/09 07:58:20;;;;;;;2.20;1.20;;;19.10;94.90;;;;;;4902434;28;91018;-81
2023/08/09 08:00:51;;;;;;;2.72;1.25;;;19.30;96.10;;;;;;4907494;28;90223;-81
2023/08/09 08:03:35;;;;;;;2.63;1.42;;;19.40;95.40;;;;;;4908544;28;86942;-82
2023/08/09 09:39:17;;;;;;;1.77;1.10;;;22.20;86.10;;;;;;5027667;22;96085;-81
2023/08/09 09:42:14;;;;;;;3.53;1.42;;;22.10;85.40;;;;;;4974419;28;91440;-81
2023/08/09 09:45:18;;;;;;;3.20;1.20;;;22.10;85.70;;;;;;4981606;28;92875;-82
2023/08/09 09:47:54;;;;;;;;;;;22.20;85.00;;;;;;4964572;28;87437;-81
2023/08/09 09:50:50;;;;;;;2.50;1.55;;;22.30;85.70;;;;;;4983178;28;86845;-80
2023/08/09 09:53:29;;;;;;;1.63;1.10;;;22.40;84.60;;;;;;4967916;28;90449;-82
2023/08/09 09:56:29;;;;;;;2.25;1.38;;;22.40;80.70;;;;;;4986570;28;89640;-81
2023/08/09 09:59:22;;;;;;;2.47;1.40;;;22.30;83.40;;;;;;4986678;28;86951;-80
2023/08/09 10:02:12;;;;;;;;;;;;;;;;;;;;;
2023/08/09 10:04:56;;;;;;;4.25;0.88;;;22.50;82.90;;;;;;4930177;28;116883;-81
2023/08/09 10:07:53;;;;;;;2.50;0.90;;;22.50;84.00;;;;;;4980169;28;89390;-82
2023/08/09 10:10:49;;;;;;;2.10;1.80;;;22.50;80.30;;;;;;4955875;28;89189;-82
2023/08/09 10:14:01;;;;;;;4.47;1.88;;;22.60;84.20;;;;;;4981428;28;89484;-82
2023/08/09 10:16:52;;;;;;;2.83;1.98;;;22.70;81.70;;;;;;4970831;28;88923;-81
2023/08/09 10:20:05;;;;;;;3.22;2.42;;;22.70;82.00;;;;;;4997644;28;87227;-81
2023/08/09 10:23:13;;;;;;;3.03;2.60;;;22.70;80.60;;;;;;4984419;28;88776;-80
2023/08/09 10:26:34;;;;;;;3.00;2.22;;;22.80;81.60;;;;;;4973234;28;87875;-82
2023/08/09 10:29:47;;;;;;;3.80;2.63;;;22.90;81.60;;;;;;4941716;28;89470;-81
2023/08/09 10:32:44;;;;;;;4.60;2.10;;;22.80;78.00;;;;;;4950378;28;92368;-81
2023/08/09 10:35:21;;;;;;;3.22;2.03;;;22.80;80.30;;;;;;4982709;28;88501;-81
2023/08/09 10:37:53;;;;;;;3.38;2.58;;;22.80;78.00;;;;;;4983147;28;89497;-81
2023/08/09 10:42:54;;;;;;;3.15;2.38;;;23.00;80.50;;;;;;4928956;28;88759;-86
2023/08/09 10:45:21;;;;;;;3.47;2.50;;;23.20;78.60;;;;;;4911153;28;87688;-85
2023/08/09 10:47:49;;;;;;;4.25;2.65;;;23.20;79.60;;;;;;4928818;28;88417;-86
2023/08/09 10:50:24;;;;;;;5.53;3.65;;;23.30;78.00;;;;;;4930885;28;90798;-85
2023/08/09 10:52:53;;;;;;;2.55;2.35;;;23.50;77.60;;;;;;4914299;28;90794;-83
2023/08/09 10:55:26;;;;;;;3.17;2.30;;;23.40;78.60;;;;;;4904813;28;88408;-82
2023/08/09 10:57:55;;;;;;;2.88;1.83;;;23.40;73.80;;;;;;4912797;28;90236;-83
2023/08/09 11:00:23;;;;;;;2.22;1.60;;;23.40;71.30;;;;;;4929645;28;91482;-83
2023/08/09 11:02:52;;;;;;;2.60;1.90;;;23.40;71.50;;;;;;4916444;28;90677;-84
2023/08/09 11:05:19;;;;;;;2.38;2.00;;;23.50;71.60;;;;;;4922594;28;87500;-85
2023/08/09 11:07:46;;;;;;;2.58;1.85;;;23.50;73.70;;;;;;4930798;28;90473;-86
2023/08/09 11:10:17;;;;;;;3.53;1.70;;;23.60;69.90;;;;;;4906671;28;88977;-86
2023/08/09 11:12:46;;;;;;;2.50;1.65;;;23.70;72.90;;;;;;4917138;28;90821;-86
2023/08/09 11:15:12;;;;;;;2.65;1.85;;;23.80;70.70;;;;;;4910573;28;89876;-86
2023/08/09 11:17:50;;;;;;;2.72;1.60;;;24.00;73.60;;;;;;4929052;28;88584;-86
2023/08/09 11:20:21;;;;;;;1.63;1.50;;;24.20;74.00;;;;;;4926404;28;90229;-85
2023/08/09 11:22:58;;;;;;;2.55;0.95;;;24.40;73.10;;;;;;4927514;28;90550;-86
2023/08/09 11:25:28;;;;;;;2.72;1.35;;;24.50;68.00;;;;;;4912224;28;88517;-85
2023/08/09 11:27:57;;;;;;;2.00;1.05;;;24.60;68.10;;;;;;4901120;28;88194;-85
2023/08/09 11:30:28;;;;;;;3.78;1.25;;;24.70;64.60;;;;;;4914715;28;92405;-82
2023/08/09 11:33:01;;;;;;;3.20;1.00;;;24.70;64.90;;;;;;4913409;28;91505;-85
2023/08/09 11:35:52;;;;;;;1.75;1.25;;;24.60;64.50;;;;;;4930498;28;87464;-86
2023/08/09 11:38:20;;;;;;;1.80;1.40;;;24.50;65.40;;;;;;4919187;28;88019;-85
2023/08/09 11:40:49;;;;;;;1.30;1.00;;;24.50;63.00;;;;;;4925054;28;92113;-84
2023/08/09 11:43:20;;;;;;;3.05;1.40;;;24.60;66.30;;;;;;4910382;28;89954;-85
2023/08/09 11:45:52;;;;;;;3.25;1.10;;;24.60;67.10;;;;;;4912001;28;87268;-86
2023/08/09 11:48:41;;;;;;;1.63;1.17;;;24.70;67.70;;;;;;4926854;28;89363;-86
2023/08/09 11:51:15;;;;;;;3.67;1.70;;;24.80;62.30;;;;;;4926451;28;91709;-85
2023/08/09 11:53:50;;;;;;;4.72;1.60;;;24.80;63.90;;;;;;4928855;28;91465;-85
2023/08/09 11:56:20;;;;;;;2.63;1.40;;;24.60;62.90;;;;;;4907656;28;87977;-84
2023/08/09 11:58:50;;;;;;;3.78;1.48;;;24.60;62.40;;;;;;4930042;28;90731;-85
2023/08/09 12:01:25;;;;;;;3.83;1.58;;;24.60;65.50;;;;;;4902990;28;89714;-85
2023/08/09 12:03:59;;;;;;;2.35;1.55;;;24.80;64.70;;;;;;4923597;28;88971;-85
2023/08/09 12:06:50;;;;;;;1.95;1.40;;;25.00;64.70;;;;;;4929509;28;87396;-85
2023/08/09 12:09:37;;;;;;;1.48;1.38;;;25.20;64.00;;;;;;4917505;28;89106;-85
2023/08/09 12:12:13;;;;;;;3.40;1.58;;;25.50;60.10;;;;;;4914082;28;91088;-84
2023/08/09 12:14:40;;;;;;;1.73;1.35;;;25.70;59.00;;;;;;4928025;28;88550;-84
2023/08/09 12:17:17;;;;;;;2.00;1.65;;;25.80;60.20;;;;;;4912786;28;88531;-85
2023/08/09 12:19:43;;;;;;;6.35;1.63;;;25.80;57.60;;;;;;4912869;28;89577;-85
2023/08/09 12:22:08;;;;;;;4.10;1.58;;;25.80;58.60;;;;;;4926771;28;90478;-86
2023/08/09 12:24:34;;;;;;;2.55;1.45;;;25.90;60.00;;;;;;4924278;28;91008;-85
2023/08/09 12:27:03;;;;;;;2.58;1.38;;;26.20;64.80;;;;;;4927182;28;87662;-84
2023/08/09 12:29:29;;;;;;;7.10;1.90;;;26.60;56.80;;;;;;4911614;28;96671;-84
2023/08/09 12:31:55;;;;;;;5.25;1.13;;;26.70;56.20;;;;;;4910476;28;91783;-83
2023/08/09 12:34:22;;;;;;;2.20;1.42;;;26.70;55.60;;;;;;4920941;28;90180;-85
2023/08/09 12:36:48;;;;;;;1.20;1.10;;;26.70;57.30;;;;;;4915953;28;87530;-84
2023/08/09 12:39:16;;;;;;;3.30;1.40;;;26.80;56.80;;;;;;4919389;28;89719;-84
2023/08/09 12:41:42;;;;;;;2.22;1.05;;;26.90;57.00;;;;;;4911009;28;90635;-85
2023/08/09 12:44:09;;;;;;;2.28;1.48;;;27.00;56.40;;;;;;4915467;28;90656;-84
2023/08/09 12:46:39;;;;;;;2.38;1.40;;;27.10;54.60;;;;;;4917077;28;87344;-84
2023/08/09 12:49:06;;;;;;;2.05;1.50;;;27.00;55.60;;;;;;4925276;28;91030;-83
2023/08/09 12:51:33;;;;;;;2.70;1.35;;;27.00;57.60;;;;;;4924498;28;89893;-84
2023/08/09 12:54:00;;;;;;;3.75;1.20;;;27.10;56.50;;;;;;4911090;28;89809;-84
2023/08/09 12:56:27;;;;;;;2.03;1.08;;;27.40;56.70;;;;;;4908897;28;87472;-84
2023/08/09 12:58:55;;;;;;;3.05;1.25;;;27.50;56.10;;;;;;4910747;28;90344;-82
2023/08/09 13:01:23;;;;;;;3.33;1.15;;;27.50;54.00;;;;;;4915531;28;91501;-84
2023/08/09 13:03:50;;;;;;;2.33;1.13;;;27.30;53.00;;;;;;4910003;28;91268;-84
2023/08/09 13:06:17;;;;;;;4.90;1.50;;;27.20;53.40;;;;;;4923542;28;88568;-84
2023/08/09 13:08:43;;;;;;;2.67;1.48;;;27.10;53.20;;;;;;4911472;28;90771;-83
2023/08/09 13:11:09;;;;;;;2.00;1.15;;;27.00;54.20;;;;;;4928279;28;90465;-84
2023/08/09 13:13:36;;;;;;;1.75;1.27;;;27.10;55.00;;;;;;4925418;28;91352;-84
2023/08/09 13:16:04;;;;;;;1.63;1.00;;;27.20;54.40;;;;;;4907631;28;87204;-83
2023/08/09 13:18:30;;;;;;;2.42;1.50;;;27.20;54.00;;;;;;4928023;28;87365;-83
2023/08/09 13:21:02;;;;;;;2.03;1.20;;;27.20;54.40;;;;;;4923755;28;96439;-84
2023/08/09 13:23:28;;;;;;;3.00;1.00;;;27.20;53.00;;;;;;4924351;28;100936;-84
2023/08/09 13:25:53;;;;;;;1.90;1.20;;;27.20;54.20;;;;;;4925153;28;92747;-84
2023/08/09 13:28:19;;;;;;;2.08;1.20;;;27.30;54.80;;;;;;4923411;28;92648;-84
2023/08/09 13:30:47;;;;;;;1.90;1.13;;;27.50;53.50;;;;;;4922426;28;95356;-84
2023/08/09 13:33:13;;;;;;;2.05;1.40;;;27.70;52.40;;;;;;4922839;28;96522;-84
2023/08/09 13:35:44;;;;;;;2.92;1.00;;;28.00;52.70;;;;;;4915458;28;92489;-84
2023/08/09 13:38:28;;;;;;;1.88;0.88;;;28.30;53.60;;;;;;4914719;28;92670;-83
2023/08/09 13:40:58;;;;;;;2.50;0.90;;;28.50;50.30;;;;;;4922231;28;95844;-83
2023/08/09 13:43:29;;;;;;;2.85;0.88;;;28.60;53.20;;;;;;4906053;28;95045;-84
2023/08/09 13:46:02;;;;;;;2.13;0.93;;;28.60;52.30;;;;;;4920128;28;92895;-83
2023/08/09 13:48:27;;;;;;;;;;;28.80;50.30;;;;;;4908646;28;92148;-82
2023/08/09 13:50:56;;;;;;;1.38;0.82;;;29.20;50.20;;;;;;4928422;28;95645;-83
2023/08/09 13:53:24;;;;;;;1.65;0.98;;;29.50;49.50;;;;;;4900157;28;95914;-83
2023/08/09 13:55:51;;;;;;;4.03;1.02;;;29.50;49.00;;;;;;4924660;28;93755;-83
2023/08/09 13:58:17;;;;;;;2.33;0.82;;;29.60;49.30;;;;;;4909443;28;94732;-83
2023/08/09 14:00:43;;;;;;;4.18;1.00;;;29.80;46.70;;;;;;4910459;28;94444;-79
2023/08/09 14:03:08;;;;;;;2.47;0.80;;;29.80;46.60;;;;;;4928126;28;92957;-78
2023/08/09 14:05:34;;;;;;;2.10;0.70;;;29.90;46.10;;;;;;4927983;28;92895;-79
2023/08/09 14:08:01;;;;;;;1.27;0.60;;;30.00;47.50;;;;;;4926003;28;92566;-79
2023/08/09 14:10:27;;;;;;;2.88;0.80;;;30.00;47.30;;;;;;4908733;28;94952;-78
2023/08/09 14:12:53;;;;;;;2.05;0.85;;;30.10;44.70;;;;;;4928344;28;96353;-77
2023/08/09 14:15:19;;;;;;;2.55;0.73;;;30.00;44.90;;;;;;4927986;28;92955;-78
2023/08/09 14:17:45;;;;;;;2.00;0.70;;;30.20;45.20;;;;;;4930333;28;92178;-84
2023/08/09 14:20:16;;;;;;;1.52;0.60;;;30.20;45.20;;;;;;4926754;28;96930;-84
2023/08/09 14:22:43;;;;;;;1.52;0.60;;;30.30;44.50;;;;;;4916418;28;97391;-85
2023/08/09 14:25:09;;;;;;;2.95;0.95;;;30.30;45.10;;;;;;4913797;28;92710;-84
2023/08/09 14:27:35;;;;;;;1.65;0.65;;;30.50;43.10;;;;;;4928226;28;92329;-86
2023/08/09 14:30:01;;;;;;;3.70;1.17;;;30.60;43.50;;;;;;4929850;28;96019;-86
2023/08/09 14:32:26;;;;;;;1.45;0.82;;;30.90;42.20;;;;;;4925928;28;95514;-83
2023/08/09 14:34:52;;;;;;;1.42;0.60;;;30.80;39.10;;;;;;4927150;28;92183;-86
2023/08/09 14:37:18;;;;;;;1.60;0.60;;;30.50;41.20;;;;;;4928088;28;91623;-85
2023/08/09 14:39:44;;;;;;;1.48;0.43;;;30.50;40.20;;;;;;4928435;28;95139;-85
2023/08/09 14:42:10;;;;;;;2.95;0.57;;;30.50;39.70;;;;;;4927267;28;96909;-84
2023/08/09 14:44:36;;;;;;;1.88;0.60;;;30.50;40.40;;;;;;4928012;28;93482;-81
2023/08/09 14:47:02;;;;;;;1.45;0.75;;;30.70;39.90;;;;;;4925763;28;93533;-86
2023/08/09 14:49:27;;;;;;;2.08;0.68;;;30.80;39.10;;;;;;4925554;28;97184;-85
2023/08/09 14:51:56;;;;;;;1.77;0.60;;;30.70;40.40;;;;;;4927312;28;96300;-91
2023/08/09 14:54:31;;;;;;;2.22;0.68;;;30.60;40.40;;;;;;4911728;28;92382;-90
2023/08/09 14:56:57;;;;;;;2.17;0.98;;;30.40;41.30;;;;;;4929830;28;92379;-89
2023/08/09 14:59:22;;;;;;;2.70;0.98;;;30.20;42.50;;;;;;4927876;28;95873;-85
2023/08/09 15:01:50;;;;;;;3.92;1.10;;;30.20;43.60;;;;;;4928943;28;95121;-89
2023/08/09 15:04:18;;;;;;;2.13;0.88;;;30.30;43.20;;;;;;4915930;28;92244;-83
2023/08/09 15:06:45;;;;;;;3.50;0.95;;;30.20;43.80;;;;;;4928828;28;92103;-88
2023/08/09 15:09:12;;;;;;;1.50;0.85;;;30.20;43.50;;;;;;4928191;28;96690;-88
2023/08/09 15:11:41;;;;;;;1.88;0.75;;;30.20;43.60;;;;;;4931277;28;96949;-87
2023/08/09 15:14:10;;;;;;;2.72;1.05;;;30.00;43.80;;;;;;4930314;28;92114;-84
2023/08/09 15:16:37;;;;;;;1.65;0.80;;;30.10;44.40;;;;;;4913767;28;92854;-86
2023/08/09 15:19:03;;;;;;;3.03;1.00;;;30.10;44.40;;;;;;4929599;28;95526;-89
2023/08/09 15:21:28;;;;;;;2.20;0.85;;;30.20;43.40;;;;;;4927559;28;96354;-86
2023/08/09 15:23:54;;;;;;;1.60;0.98;;;30.20;42.90;;;;;;4931034;28;92922;-86
2023/08/09 15:26:20;;;;;;;4.00;1.10;;;30.20;42.80;;;;;;4930654;28;91475;-86
2023/08/09 15:28:46;;;;;;;3.25;0.70;;;30.10;42.70;;;;;;4909690;28;95047;-86
2023/08/09 15:31:11;;;;;;;0.85;0.75;;;30.20;44.70;;;;;;4926673;28;96815;-89
2023/08/09 15:33:37;;;;;;;2.55;0.98;;;30.30;43.60;;;;;;4930754;28;93780;-85